Time;durP1;ratioP1;P1;durP2;ratioP2;P2;SDS_P1;SDS_P2;PMS_P1;PMS_P2;Temp;Humidity;BMP_temperature;BMP_pressure;BME280_temperature;BME280_humidity;BME280_pressure;Samples;Min_cycle;Max_cycle;Signal;HPM_P1;HPM_P2
2021/07/24 00:01:31;;;;;;;17.95;13.75;;;;;;;19.21;60.53;98337.38;3582735;40;20359;-67
2021/07/24 00:03:59;;;;;;;15.80;13.80;;;;;;;19.24;60.64;98334.19;3580812;40;20040;-68
2021/07/24 00:06:44;;;;;;;20.05;13.02;;;;;;;19.25;60.80;98339.28;3581901;40;20052;-68
2021/07/24 00:09:12;;;;;;;15.75;13.85;;;;;;;19.20;60.95;98328.56;3582743;40;20531;-68
2021/07/24 00:11:40;;;;;;;17.98;13.55;;;;;;;19.10;60.75;98338.38;3582902;40;20125;-68
2021/07/24 00:14:09;;;;;;;16.38;13.50;;;;;;;19.00;61.12;98339.16;3582901;40;20056;-68
2021/07/24 00:16:37;;;;;;;17.42;14.30;;;;;;;18.92;61.45;98329.72;3582205;40;20403;-69
2021/07/24 00:19:05;;;;;;;16.58;14.75;;;;;;;18.99;61.17;98324.94;3582709;40;20330;-67
2021/07/24 00:21:33;;;;;;;16.83;13.82;;;;;;;19.06;60.96;98324.69;3583091;40;20317;-66
2021/07/24 00:24:00;;;;;;;17.52;13.73;;;;;;;19.10;60.82;98317.75;3582633;40;20049;-67
2021/07/24 00:26:28;;;;;;;16.58;13.95;;;;;;;19.13;60.60;98301.19;3583381;40;20075;-67
2021/07/24 00:28:56;;;;;;;19.95;15.57;;;;;;;19.00;60.76;98297.09;3582825;40;20052;-67
2021/07/24 00:31:25;;;;;;;18.17;13.07;;;;;;;18.76;61.40;98280.59;3582092;40;20406;-67
2021/07/24 00:33:56;;;;;;;17.65;14.73;;;;;;;18.63;61.97;98278.34;3581627;40;20355;-67
2021/07/24 00:36:24;;;;;;;16.88;15.02;;;;;;;18.75;61.97;98281.69;3616851;23;20420;-63
2021/07/24 00:38:52;;;;;;;20.48;14.18;;;;;;;18.87;61.38;98289.53;3587942;40;20479;-64
2021/07/24 00:41:31;;;;;;;17.05;14.55;;;;;;;18.92;61.19;98286.06;3588140;40;20055;-64
2021/07/24 00:44:01;;;;;;;19.65;15.00;;;;;;;18.95;60.82;98286.34;3588634;40;20060;-63
2021/07/24 00:46:32;;;;;;;17.10;14.25;;;;;;;18.97;60.85;98281.53;3580575;40;20040;-64
2021/07/24 00:49:02;;;;;;;21.42;16.00;;;;;;;19.02;60.89;98278.06;3580939;40;20391;-63
2021/07/24 00:51:53;;;;;;;17.15;15.35;;;;;;;18.71;61.46;98271.75;3589796;40;20351;-63
2021/07/24 00:54:21;;;;;;;17.58;14.15;;;;;;;18.51;62.43;98269.72;3590007;40;20086;-64
2021/07/24 00:56:50;;;;;;;19.00;15.25;;;;;;;18.53;62.20;98272.91;3589758;40;20056;-64
2021/07/24 00:59:18;;;;;;;20.77;15.75;;;;;;;18.59;62.16;98271.09;3589473;40;20044;-63
2021/07/24 01:01:47;;;;;;;19.85;15.40;;;;;;;18.60;62.03;98278.88;3580242;40;20052;-63
2021/07/24 01:04:15;;;;;;;16.95;14.73;;;;;;;18.54;62.17;98282.59;3580521;40;20025;-63
2021/07/24 01:06:46;;;;;;;16.33;14.40;;;;;;;18.48;62.23;98284.41;3580265;40;20496;-63
2021/07/24 01:09:14;;;;;;;18.02;15.73;;;;;;;18.46;62.47;98272.34;3589678;40;20028;-62
2021/07/24 01:11:43;;;;;;;19.35;15.45;;;;;;;18.35;62.75;98257.28;3580050;40;20387;-63
2021/07/24 01:14:12;;;;;;;16.85;14.75;;;;;;;18.26;63.21;98252.41;3580142;40;20333;-62
2021/07/24 01:16:42;;;;;;;17.65;14.57;;;;;;;18.25;63.32;98253.47;3589381;40;20040;-63
2021/07/24 01:19:21;;;;;;;18.67;14.50;;;;;;;18.40;62.78;98251.94;3580173;40;20049;-63
2021/07/24 01:21:51;;;;;;;20.73;15.27;;;;;;;18.50;62.94;98252.84;3589261;40;20052;-63
2021/07/24 01:24:19;;;;;;;17.08;14.55;;;;;;;18.48;62.18;98249.59;3580931;40;20175;-63
2021/07/24 01:26:48;;;;;;;19.40;15.48;;;;;;;18.41;62.76;98248.22;3582686;40;20341;-63
2021/07/24 01:29:20;;;;;;;19.58;15.60;;;;;;;18.45;62.64;98247.47;3591438;40;20044;-62
2021/07/24 01:31:51;;;;;;;19.27;14.43;;;;;;;18.39;62.82;98239.66;3581048;40;20049;-63
2021/07/24 01:34:20;;;;;;;20.15;15.95;;;;;;;18.25;62.78;98232.06;3589791;40;20401;-63
2021/07/24 01:36:48;;;;;;;15.75;13.57;;;;;;;18.15;63.62;98231.16;3580085;40;20064;-63
2021/07/24 01:39:18;;;;;;;15.93;13.93;;;;;;;18.18;63.59;98246.72;3589717;40;20121;-64
2021/07/24 01:41:46;;;;;;;19.60;16.15;;;;;;;18.25;63.59;98241.97;3580807;40;20060;-64
2021/07/24 01:44:15;;;;;;;18.00;16.10;;;;;;;18.25;62.77;98255.34;3580180;40;20047;-64
2021/07/24 01:46:43;;;;;;;17.70;14.85;;;;;;;18.21;63.05;98249.69;3589825;40;20045;-64
2021/07/24 01:55:04;;;;;;;;;;;;;;;18.22;62.22;98242.47;3589921;40;20051;-64
2021/07/24 01:57:44;;;;;;;19.45;16.00;;;;;;;18.08;63.24;98255.44;3589194;40;19932;-63
2021/07/24 02:00:13;;;;;;;20.13;16.38;;;;;;;17.98;63.53;98250.00;3589770;40;20052;-64
2021/07/24 02:03:08;;;;;;;16.73;15.02;;;;;;;17.85;64.32;98245.09;3580219;40;20048;-64
2021/07/24 02:05:55;;;;;;;18.50;14.47;;;;;;;17.85;64.07;98245.88;3579942;40;20045;-63
2021/07/24 02:08:28;;;;;;;19.13;15.27;;;;;;;17.92;63.99;98249.19;3579388;40;21179;-63
2021/07/24 02:11:02;;;;;;;17.75;15.50;;;;;;;17.92;64.11;98248.34;3580121;40;20052;-64
2021/07/24 02:13:36;;;;;;;22.25;15.25;;;;;;;17.89;64.29;98243.53;3581013;40;20088;-64
2021/07/24 02:16:11;;;;;;;18.27;15.57;;;;;;;17.86;64.46;98252.03;3588059;40;20048;-64
2021/07/24 02:18:41;;;;;;;18.25;15.82;;;;;;;17.78;64.54;98256.78;3589950;40;20086;-65
2021/07/24 02:21:33;;;;;;;18.98;17.08;;;;;;;17.68;64.59;98229.94;3583857;40;20353;-65
2021/07/24 02:24:02;;;;;;;18.60;15.93;;;;;;;17.60;65.29;98216.22;3589128;40;20061;-63
2021/07/24 02:26:34;;;;;;;21.85;16.48;;;;;;;17.63;65.34;98215.69;3580342;40;20076;-64
2021/07/24 02:29:04;;;;;;;;;;;;;;;17.68;64.63;98210.41;3591048;40;20049;-65
2021/07/24 02:31:32;;;;;;;18.45;15.70;;;;;;;17.65;64.93;98200.22;3580387;40;20217;-64
2021/07/24 02:34:03;;;;;;;17.98;16.08;;;;;;;17.64;64.80;98183.38;3581487;40;20055;-64
2021/07/24 02:36:33;;;;;;;18.17;15.85;;;;;;;17.65;64.57;98173.50;3582505;40;20099;-64
2021/07/24 02:39:01;;;;;;;16.73;14.50;;;;;;;17.70;64.63;98185.03;3582171;40;20036;-64
2021/07/24 02:41:29;;;;;;;18.45;14.65;;;;;;;17.86;64.50;98177.97;3582786;40;20106;-64
2021/07/24 02:43:59;;;;;;;19.80;15.50;;;;;;;17.97;64.12;98187.72;3591588;40;20052;-65
2021/07/24 02:46:27;;;;;;;18.33;15.40;;;;;;;18.13;64.11;98207.34;3582134;40;20305;-65
2021/07/24 02:48:56;;;;;;;15.48;13.65;;;;;;;18.28;63.23;98220.03;3581977;40;20503;-64
2021/07/24 02:51:31;;;;;;;17.92;14.50;;;;;;;18.41;63.09;98227.63;3582425;40;20122;-64
2021/07/24 02:54:01;;;;;;;17.05;14.35;;;;;;;18.51;62.85;98235.72;3580619;40;20119;-65
2021/07/24 02:56:32;;;;;;;19.20;15.55;;;;;;;18.57;62.31;98233.88;3580056;40;20040;-64
2021/07/24 02:59:01;;;;;;;16.35;14.63;;;;;;;18.51;62.46;98243.75;3588658;40;20056;-64
2021/07/24 03:01:29;;;;;;;16.50;14.65;;;;;;;18.49;62.45;98250.41;3589602;40;20055;-64
2021/07/24 03:03:57;;;;;;;19.95;15.27;;;;;;;18.52;62.96;98228.50;3589458;40;20051;-64
2021/07/24 03:06:25;;;;;;;17.98;14.75;;;;;;;18.43;62.96;98227.38;3589109;40;20048;-64
2021/07/24 03:08:52;;;;;;;16.27;14.35;;;;;;;18.40;63.20;98236.69;3589374;40;20387;-64
2021/07/24 03:11:20;;;;;;;18.15;15.23;;;;;;;18.40;63.09;98230.53;3590435;40;20338;-64
2021/07/24 03:13:51;;;;;;;16.80;13.88;;;;;;;18.48;63.48;98257.63;3589313;40;20052;-64
2021/07/24 03:16:20;;;;;;;24.00;15.07;;;;;;;18.59;63.35;98295.19;3588912;40;20044;-65
2021/07/24 03:18:49;;;;;;;20.67;15.82;;;;;;;18.53;63.09;98319.25;3579941;40;20064;-64
2021/07/24 03:21:16;;;;;;;19.80;15.80;;;;;;;18.41;63.68;98328.50;3579806;40;20043;-64
2021/07/24 03:23:44;;;;;;;18.70;15.80;;;;;;;18.34;64.85;98320.69;3589168;40;20133;-64
2021/07/24 03:26:13;;;;;;;24.95;16.02;;;;;;;18.41;64.64;98307.09;3589102;40;20465;-64
2021/07/24 03:28:40;;;;;;;19.35;13.98;;;;;;;18.52;64.91;98317.63;3589109;40;20390;-64
2021/07/24 03:31:08;;;;;;;20.90;15.73;;;;;;;18.61;65.19;98312.59;3588926;40;20386;-64
2021/07/24 03:33:37;;;;;;;18.20;15.52;;;;;;;18.65;65.10;98316.38;3588874;40;20051;-64
2021/07/24 03:36:05;;;;;;;17.65;15.75;;;;;;;18.60;65.09;98331.59;3588676;40;20065;-63
2021/07/24 03:38:33;;;;;;;19.95;15.95;;;;;;;18.53;65.71;98310.38;3588503;40;20387;-64
2021/07/24 03:41:03;;;;;;;19.20;17.20;;;;;;;18.29;65.91;98294.69;3589608;40;20048;-64
2021/07/24 03:43:31;;;;;;;20.50;18.40;;;;;;;18.18;66.75;98287.63;3588494;40;20080;-64
2021/07/24 03:45:59;;;;;;;18.20;15.43;;;;;;;18.10;67.42;98295.31;3588631;40;20052;-65
2021/07/24 03:48:27;;;;;;;21.60;15.93;;;;;;;18.24;67.60;98318.72;3579358;40;20076;-64
2021/07/24 03:50:56;;;;;;;19.10;16.20;;;;;;;18.37;67.29;98327.38;3588736;40;20394;-65
2021/07/24 03:53:24;;;;;;;18.08;15.82;;;;;;;18.44;67.12;98309.25;3589402;40;20104;-64
2021/07/24 03:55:51;;;;;;;19.38;16.98;;;;;;;18.44;67.26;98294.00;3579422;40;20051;-65
2021/07/24 03:58:20;;;;;;;21.25;17.98;;;;;;;18.41;67.07;98286.50;3588254;40;20044;-64
2021/07/24 04:00:49;;;;;;;21.75;19.40;;;;;;;18.26;67.26;98275.66;3589011;40;20056;-65
2021/07/24 04:03:18;;;;;;;17.73;15.70;;;;;;;18.17;68.12;98290.59;3588679;40;20356;-64
2021/07/24 04:05:46;;;;;;;21.20;17.50;;;;;;;18.29;68.38;98291.22;3588549;40;20048;-64
2021/07/24 04:08:15;;;;;;;23.45;18.95;;;;;;;18.41;67.79;98274.97;3578934;40;20418;-64
2021/07/24 04:10:43;;;;;;;19.02;16.70;;;;;;;18.33;68.15;98265.56;3588352;40;20179;-64
2021/07/24 04:13:12;;;;;;;18.92;16.13;;;;;;;18.33;68.11;98268.25;3579739;40;20084;-65
2021/07/24 04:15:40;;;;;;;18.05;16.05;;;;;;;18.40;68.17;98270.69;3578795;40;20674;-63
2021/07/24 04:18:08;;;;;;;20.13;17.52;;;;;;;18.51;67.88;98280.41;3588351;40;20056;-64
2021/07/24 04:20:37;;;;;;;17.70;15.85;;;;;;;18.50;67.40;98279.59;3579924;40;20052;-64
2021/07/24 04:23:05;;;;;;;20.95;18.75;;;;;;;18.51;67.39;98264.34;3590100;40;20124;-64
2021/07/24 04:25:36;;;;;;;20.17;16.38;;;;;;;18.42;67.34;98263.22;3590515;40;20075;-65
2021/07/24 04:28:04;;;;;;;19.20;15.15;;;;;;;18.49;67.54;98277.16;3590156;40;20048;-64
2021/07/24 04:30:33;;;;;;;19.38;16.90;;;;;;;18.58;66.81;98262.28;3590469;40;20044;-65
2021/07/24 04:33:00;;;;;;;20.10;17.60;;;;;;;18.40;68.24;98258.09;3592034;40;20409;-65
2021/07/24 04:35:28;;;;;;;19.27;17.05;;;;;;;18.39;68.92;98267.22;3592265;40;20080;-65
2021/07/24 04:37:56;;;;;;;21.33;17.48;;;;;;;18.43;68.89;98267.50;3592880;40;20101;-64
2021/07/24 04:40:24;;;;;;;26.17;18.13;;;;;;;18.46;68.90;98258.97;3582893;40;20044;-66
2021/07/24 04:42:53;;;;;;;21.90;16.70;;;;;;;18.53;68.86;98259.53;3592782;40;20044;-65
2021/07/24 04:45:20;;;;;;;19.17;17.27;;;;;;;18.46;68.64;98267.00;3592615;40;20105;-66
2021/07/24 04:47:48;;;;;;;20.90;17.17;;;;;;;18.38;69.39;98267.47;3592013;40;20048;-65
2021/07/24 04:50:16;;;;;;;20.20;17.95;;;;;;;18.33;68.99;98262.91;3590858;40;20077;-64
2021/07/24 04:52:44;;;;;;;20.30;17.58;;;;;;;18.33;69.15;98260.22;3582228;40;20076;-65
2021/07/24 04:55:12;;;;;;;19.75;16.85;;;;;;;18.38;69.15;98254.09;3591108;40;20048;-65
2021/07/24 04:57:41;;;;;;;22.40;17.95;;;;;;;18.42;68.82;98258.69;3590886;40;20040;-64
2021/07/24 05:00:13;;;;;;;20.85;16.52;;;;;;;18.55;68.98;98260.91;3590451;40;20048;-64
2021/07/24 05:02:42;;;;;;;19.30;17.35;;;;;;;18.66;68.85;98261.78;3590459;40;20100;-64
2021/07/24 05:05:11;;;;;;;21.42;17.33;;;;;;;18.81;68.60;98256.53;3581303;40;20052;-64
2021/07/24 05:07:40;;;;;;;19.80;17.45;;;;;;;18.93;68.37;98253.66;3589833;40;20061;-65
2021/07/24 05:10:10;;;;;;;21.52;18.55;;;;;;;19.03;68.15;98244.88;3589887;40;20080;-63
2021/07/24 05:12:39;;;;;;;19.55;17.55;;;;;;;19.14;67.81;98243.03;3591044;40;20145;-63
2021/07/24 05:15:08;;;;;;;22.58;19.75;;;;;;;19.14;68.04;98232.31;3581360;40;20098;-62
2021/07/24 05:17:41;;;;;;;23.45;18.98;;;;;;;19.16;67.87;98235.56;3590900;40;20048;-63
2021/07/24 05:20:09;;;;;;;23.43;18.70;;;;;;;19.21;68.04;98231.03;3590242;40;20051;-64
2021/07/24 05:22:37;;;;;;;20.88;18.65;;;;;;;19.39;67.15;98242.31;3580644;40;20084;-64
2021/07/24 05:25:05;;;;;;;20.15;17.98;;;;;;;19.50;67.22;98242.09;3580690;40;20032;-64
2021/07/24 05:27:33;;;;;;;23.15;18.40;;;;;;;19.55;66.94;98234.09;3589438;40;20125;-64
2021/07/24 05:30:01;;;;;;;27.17;20.52;;;;;;;19.46;66.70;98234.84;3589299;40;20044;-64
2021/07/24 05:32:29;;;;;;;19.88;17.77;;;;;;;19.48;66.91;98230.03;3589067;40;20049;-65
2021/07/24 05:34:58;;;;;;;20.60;18.40;;;;;;;19.63;67.08;98230.09;3580573;40;20025;-64
2021/07/24 05:37:25;;;;;;;19.77;16.85;;;;;;;19.79;66.02;98238.97;3589910;40;20294;-63
2021/07/24 05:39:53;;;;;;;22.75;18.20;;;;;;;19.82;65.50;98227.72;3589396;40;20064;-65
2021/07/24 05:42:21;;;;;;;23.00;16.52;;;;;;;19.82;65.36;98234.97;3589348;40;20044;-64
2021/07/24 05:44:48;;;;;;;18.70;16.73;;;;;;;19.88;65.36;98226.66;3589567;40;20075;-64
2021/07/24 05:47:16;;;;;;;20.27;17.10;;;;;;;19.94;64.89;98230.94;3589579;40;20052;-63
2021/07/24 05:49:45;;;;;;;20.20;16.08;;;;;;;19.84;64.70;98228.28;3589266;40;20134;-64
2021/07/24 05:52:14;;;;;;;18.73;16.60;;;;;;;19.87;65.38;98237.66;3589397;40;20060;-64
2021/07/24 05:54:42;;;;;;;19.08;16.23;;;;;;;19.84;65.27;98236.31;3589518;40;20111;-65
2021/07/24 05:57:10;;;;;;;19.33;12.10;;;;;;;19.84;64.91;98241.69;3579788;40;20511;-64
2021/07/24 05:59:37;;;;;;;14.88;13.15;;;;;;;19.88;65.13;98241.94;3589178;40;20052;-64
2021/07/24 06:02:06;;;;;;;14.27;12.77;;;;;;;19.89;65.00;98241.69;3589508;40;20048;-64
2021/07/24 06:04:34;;;;;;;15.52;13.00;;;;;;;19.87;65.23;98254.53;3589447;40;20036;-64
2021/07/24 06:07:03;;;;;;;15.00;12.43;;;;;;;19.92;65.10;98261.78;3589106;40;20041;-64
2021/07/24 06:09:32;;;;;;;15.32;12.25;;;;;;;19.98;65.33;98266.09;3588893;40;20044;-64
2021/07/24 06:12:00;;;;;;;15.48;12.27;;;;;;;20.00;64.75;98274.66;3579587;40;20052;-65
2021/07/24 06:14:28;;;;;;;13.77;11.68;;;;;;;20.02;65.17;98272.53;3589323;40;20110;-64
2021/07/24 06:16:55;;;;;;;12.23;10.93;;;;;;;20.04;64.79;98284.63;3579871;40;20059;-65
2021/07/24 06:19:23;;;;;;;14.55;11.10;;;;;;;20.10;64.63;98282.75;3589096;40;20052;-65
2021/07/24 06:21:51;;;;;;;14.93;10.77;;;;;;;20.17;64.63;98295.91;3588931;40;20040;-65
2021/07/24 06:24:18;;;;;;;14.43;10.80;;;;;;;20.20;64.39;98300.72;3589099;40;20084;-65
2021/07/24 06:26:48;;;;;;;12.52;9.23;;;;;;;20.21;64.49;98297.00;3589117;40;20395;-64
2021/07/24 06:29:15;;;;;;;13.70;9.77;;;;;;;20.24;64.95;98299.13;3589098;40;20048;-64
2021/07/24 06:31:43;;;;;;;13.95;10.05;;;;;;;20.26;64.79;98299.66;3579896;40;20063;-65
2021/07/24 06:34:14;;;;;;;13.52;10.35;;;;;;;20.34;64.42;98293.78;3589141;40;20404;-66
2021/07/24 06:36:42;;;;;;;14.75;10.00;;;;;;;20.41;64.58;98304.22;3589398;40;20040;-66
2021/07/24 06:39:10;;;;;;;13.50;10.90;;;;;;;20.47;64.33;98306.66;3588917;40;20321;-64
2021/07/24 06:41:39;;;;;;;15.00;10.05;;;;;;;20.53;64.17;98296.72;3589187;40;20424;-64
2021/07/24 06:44:09;;;;;;;10.85;9.57;;;;;;;20.57;64.04;98289.75;3579486;40;20399;-64
2021/07/24 06:46:37;;;;;;;18.13;10.25;;;;;;;20.64;64.23;98298.34;3588986;40;20032;-64
2021/07/24 06:49:05;;;;;;;15.18;9.85;;;;;;;20.68;64.22;98280.59;3588594;40;20064;-64
2021/07/24 06:51:32;;;;;;;13.85;9.32;;;;;;;20.71;64.01;98268.53;3588955;40;20044;-64
2021/07/24 06:54:00;;;;;;;10.23;9.15;;;;;;;20.77;64.01;98262.06;3588833;40;20064;-64
2021/07/24 06:56:28;;;;;;;14.68;11.02;;;;;;;20.81;64.09;98248.91;3589003;40;20317;-64
2021/07/24 06:58:56;;;;;;;16.75;12.55;;;;;;;20.87;63.94;98250.50;3588838;40;20052;-64
2021/07/24 07:01:25;;;;;;;12.65;10.65;;;;;;;20.92;63.76;98256.66;3588704;40;20052;-64
2021/07/24 07:03:54;;;;;;;12.52;10.20;;;;;;;20.99;63.82;98259.88;3589134;40;20055;-64
2021/07/24 07:06:22;;;;;;;13.38;10.98;;;;;;;21.09;63.70;98268.97;3588686;40;20045;-64
2021/07/24 07:08:50;;;;;;;11.88;10.63;;;;;;;21.17;63.45;98263.03;3588477;40;20048;-64
2021/07/24 07:11:17;;;;;;;12.75;10.50;;;;;;;21.20;63.11;98268.66;3588886;40;20052;-64
2021/07/24 07:13:45;;;;;;;13.02;10.27;;;;;;;21.18;63.12;98262.75;3588826;40;20052;-64
2021/07/24 07:16:13;;;;;;;12.05;10.85;;;;;;;21.20;63.12;98254.44;3588688;40;20037;-64
2021/07/24 07:18:42;;;;;;;12.93;10.07;;;;;;;21.20;63.37;98257.91;3579310;40;20056;-64
2021/07/24 07:21:10;;;;;;;12.80;9.88;;;;;;;21.19;63.62;98250.94;3588799;40;20412;-65
2021/07/24 07:23:38;;;;;;;13.90;10.30;;;;;;;21.17;63.95;98252.28;3588896;40;20037;-64
2021/07/24 07:26:06;;;;;;;13.25;10.68;;;;;;;21.19;64.63;98244.75;3588701;40;20413;-64
2021/07/24 07:28:34;;;;;;;14.23;10.38;;;;;;;21.19;64.71;98225.94;3588448;40;20052;-64
2021/07/24 07:31:02;;;;;;;12.73;10.45;;;;;;;21.16;64.80;98223.81;3579388;40;20028;-64
2021/07/24 07:33:30;;;;;;;15.60;10.95;;;;;;;21.14;65.01;98234.00;3588651;40;20048;-65
2021/07/24 07:35:59;;;;;;;11.63;10.35;;;;;;;21.13;65.91;98245.84;3579016;40;20433;-64
2021/07/24 07:38:27;;;;;;;20.45;11.23;;;;;;;21.11;66.23;98254.19;3588409;40;20089;-65
2021/07/24 07:40:54;;;;;;;26.23;14.57;;;;;;;21.11;66.46;98253.41;3579477;40;20080;-64
2021/07/24 07:43:23;;;;;;;22.80;13.25;;;;;;;21.06;66.90;98259.56;3588529;40;20133;-64
2021/07/24 07:45:50;;;;;;;17.25;11.32;;;;;;;21.09;66.93;98261.72;3579370;40;20061;-64
2021/07/24 07:48:18;;;;;;;16.90;11.27;;;;;;;21.07;67.32;98261.19;3588353;40;20053;-64
2021/07/24 07:50:47;;;;;;;12.80;9.52;;;;;;;21.06;67.63;98261.44;3588494;40;20060;-64
2021/07/24 07:53:16;;;;;;;11.75;9.88;;;;;;;21.02;67.64;98267.38;3588689;40;20344;-64
2021/07/24 07:55:45;;;;;;;16.45;10.75;;;;;;;21.01;67.86;98273.81;3581662;40;20057;-64
2021/07/24 07:58:14;;;;;;;15.90;12.20;;;;;;;21.02;68.51;98272.75;3581940;40;20052;-65
2021/07/24 08:00:42;;;;;;;13.68;11.93;;;;;;;21.01;68.74;98276.50;3591641;40;20349;-65
2021/07/24 08:03:10;;;;;;;17.23;13.65;;;;;;;21.03;68.74;98277.06;3591520;40;20051;-66
2021/07/24 08:05:38;;;;;;;16.48;14.18;;;;;;;21.06;68.37;98281.06;3582272;40;20312;-65
2021/07/24 08:08:06;;;;;;;13.40;11.82;;;;;;;21.09;68.44;98267.09;3581832;40;20056;-65
2021/07/24 08:10:35;;;;;;;13.32;11.73;;;;;;;21.15;68.85;98259.81;3582323;40;20287;-65
2021/07/24 08:13:11;;;;;;;19.80;15.20;;;;;;;21.19;68.89;98264.38;3591634;40;20389;-65
2021/07/24 08:15:39;;;;;;;15.13;12.90;;;;;;;20.95;68.96;98261.50;3582584;40;20362;-65
2021/07/24 08:18:07;;;;;;;14.30;12.65;;;;;;;20.96;69.03;98268.47;3591344;40;20049;-65
2021/07/24 08:20:35;;;;;;;14.80;12.95;;;;;;;21.02;69.10;98262.00;3591522;40;20128;-65
2021/07/24 08:23:03;;;;;;;17.25;13.48;;;;;;;21.07;69.23;98263.09;3591311;40;20052;-65
2021/07/24 08:25:30;;;;;;;15.15;13.57;;;;;;;21.17;69.10;98261.13;3582250;40;20052;-65
2021/07/24 08:28:01;;;;;;;14.05;12.68;;;;;;;21.24;68.73;98258.97;3591689;40;20367;-65
2021/07/24 08:30:29;;;;;;;15.23;13.20;;;;;;;21.26;68.51;98253.31;3582379;40;20058;-65
2021/07/24 08:32:57;;;;;;;15.32;12.65;;;;;;;21.29;68.43;98258.16;3591923;40;20024;-65
2021/07/24 08:35:25;;;;;;;18.15;13.35;;;;;;;21.39;68.55;98255.47;3582933;40;20105;-65
2021/07/24 08:37:53;;;;;;;14.13;10.90;;;;;;;21.52;68.42;98246.78;3591850;40;20121;-65
2021/07/24 08:40:21;;;;;;;13.60;10.65;;;;;;;21.81;68.65;98239.88;3582118;40;20033;-65
2021/07/24 08:42:48;;;;;;;14.25;10.75;;;;;;;22.07;67.61;98233.22;3582031;40;20377;-65
2021/07/24 08:45:19;;;;;;;12.68;9.57;;;;;;;22.21;67.34;98231.53;3582003;40;20044;-65
2021/07/24 08:47:46;;;;;;;13.38;10.45;;;;;;;22.37;66.49;98228.69;3591239;40;20134;-65
2021/07/24 08:50:15;;;;;;;12.38;9.93;;;;;;;22.63;66.07;98223.88;3582015;40;20056;-65
2021/07/24 08:52:42;;;;;;;11.32;9.77;;;;;;;22.87;65.43;98237.38;3591418;40;20041;-65
2021/07/24 08:55:11;;;;;;;11.18;8.93;;;;;;;23.02;64.80;98234.53;3582158;40;20114;-65
2021/07/24 08:57:41;;;;;;;11.95;9.02;;;;;;;23.08;64.15;98238.78;3591228;40;20056;-65
2021/07/24 09:00:11;;;;;;;12.02;10.60;;;;;;;23.22;63.75;98239.66;3581867;40;20032;-66
2021/07/24 09:02:41;;;;;;;9.50;8.60;;;;;;;23.41;62.94;98244.31;3591358;40;20044;-65
2021/07/24 09:05:11;;;;;;;10.00;7.75;;;;;;;23.52;62.30;98253.88;3590878;40;20133;-65
2021/07/24 09:07:41;;;;;;;10.20;8.10;;;;;;;23.56;61.75;98259.50;3589266;40;20060;-65
2021/07/24 09:10:11;;;;;;;9.73;8.68;;;;;;;23.57;61.21;98256.50;3588885;40;20045;-66
2021/07/24 09:12:40;;;;;;;12.13;7.80;;;;;;;23.55;61.05;98263.25;3589448;40;20028;-65
2021/07/24 09:15:10;;;;;;;12.32;8.45;;;;;;;23.49;61.02;98260.63;3580142;40;20053;-64
2021/07/24 09:17:39;;;;;;;9.68;7.55;;;;;;;23.50;60.86;98266.84;3589223;40;20048;-65
2021/07/24 09:20:08;;;;;;;8.18;7.38;;;;;;;23.50;60.17;98258.75;3579775;40;20045;-65
2021/07/24 09:22:37;;;;;;;12.13;8.48;;;;;;;23.33;59.88;98259.22;3579990;40;20045;-65
2021/07/24 09:25:10;;;;;;;9.95;8.40;;;;;;;23.15;60.75;98258.09;3589245;40;20031;-65
2021/07/24 09:27:40;;;;;;;7.93;7.13;;;;;;;23.11;61.36;98262.47;3580196;40;20073;-65
2021/07/24 09:30:10;;;;;;;10.40;8.32;;;;;;;23.18;60.95;98257.50;3579639;40;20052;-64
2021/07/24 09:32:39;;;;;;;8.30;6.97;;;;;;;23.13;60.95;98265.66;3579881;40;20040;-64
2021/07/24 09:35:08;;;;;;;15.77;8.75;;;;;;;23.13;61.67;98273.75;3589214;40;20056;-65
2021/07/24 09:37:35;;;;;;;9.05;6.97;;;;;;;23.15;61.32;98274.28;3579816;40;20040;-64
2021/07/24 09:40:21;;;;;;;9.13;6.55;;;;;;;23.18;61.31;98265.59;3589201;40;20144;-65
2021/07/24 09:42:49;;;;;;;14.10;6.50;;;;;;;23.26;60.83;98250.69;3589394;40;20060;-64
2021/07/24 09:45:17;;;;;;;7.88;6.05;;;;;;;23.41;60.20;98253.19;3589325;40;20368;-65
2021/07/24 09:47:47;;;;;;;8.30;6.90;;;;;;;23.51;59.40;98241.44;3589323;40;20047;-65
2021/07/24 09:50:16;;;;;;;9.63;6.50;;;;;;;23.61;59.06;98229.75;3589088;40;20138;-65
2021/07/24 09:52:49;;;;;;;6.85;6.15;;;;;;;23.69;58.85;98221.81;3589271;40;20064;-65
2021/07/24 09:55:18;;;;;;;7.43;6.63;;;;;;;23.88;58.39;98229.09;3589046;40;20025;-64
2021/07/24 09:57:46;;;;;;;6.82;5.30;;;;;;;24.02;58.10;98216.47;3589142;40;20060;-64
2021/07/24 10:00:25;;;;;;;8.40;7.25;;;;;;;24.40;57.79;98211.78;3589042;40;20126;-64
2021/07/24 10:03:04;;;;;;;9.80;6.03;;;;;;;24.83;55.44;98216.97;3589004;40;20046;-65
2021/07/24 10:05:34;;;;;;;8.18;6.15;;;;;;;25.10;54.50;98213.47;3589313;40;20296;-65
2021/07/24 10:08:05;;;;;;;7.10;5.78;;;;;;;25.32;55.23;98220.06;3579703;40;20045;-65
2021/07/24 10:10:35;;;;;;;9.05;6.07;;;;;;;25.51;54.27;98222.63;3589090;40;20518;-65
2021/07/24 10:13:04;;;;;;;10.70;5.47;;;;;;;25.69;53.80;98208.94;3589871;40;20044;-65
2021/07/24 10:15:37;;;;;;;8.00;5.00;;;;;;;25.76;53.36;98216.66;3589652;40;20101;-65
2021/07/24 10:18:11;;;;;;;6.35;5.38;;;;;;;25.66;53.22;98220.38;3589019;40;20423;-65
2021/07/24 10:20:40;;;;;;;8.85;5.55;;;;;;;25.48;53.28;98213.22;3589344;40;20082;-66
2021/07/24 10:23:09;;;;;;;7.65;5.22;;;;;;;25.28;54.42;98213.66;3588906;40;20050;-65
2021/07/24 10:25:55;;;;;;;10.63;6.30;;;;;;;25.05;54.26;98212.75;3588987;40;20044;-65
2021/07/24 10:28:28;;;;;;;6.75;5.15;;;;;;;24.71;55.21;98211.25;3588833;40;20064;-66
2021/07/24 10:30:58;;;;;;;7.75;6.10;;;;;;;24.46;55.41;98201.72;3589077;40;20060;-65
2021/07/24 10:33:31;;;;;;;8.43;5.90;;;;;;;24.16;56.51;98211.09;3589106;40;20074;-66
2021/07/24 10:36:12;;;;;;;6.95;6.00;;;;;;;24.05;56.95;98221.28;3579592;40;20025;-65
2021/07/24 10:38:58;;;;;;;9.60;6.05;;;;;;;24.08;57.07;98222.56;3579641;40;20052;-65
2021/07/24 10:41:36;;;;;;;9.23;5.25;;;;;;;24.31;57.12;98216.25;3589086;40;20113;-65
2021/07/24 10:44:05;;;;;;;7.57;6.65;;;;;;;24.62;56.82;98218.44;3589172;40;20091;-66
2021/07/24 10:49:58;;;;;;;6.72;5.18;;;;;;;24.66;56.54;98233.78;3588539;40;20056;-66
2021/07/24 10:52:26;;;;;;;5.30;4.80;;;;;;;24.61;56.72;98227.63;3589684;40;20346;-66
2021/07/24 10:55:12;;;;;;;6.85;5.28;;;;;;;24.56;56.74;98239.34;3588728;40;20051;-66
2021/07/24 10:58:05;;;;;;;5.88;4.90;;;;;;;24.55;56.75;98245.84;3588664;40;20055;-66
2021/07/24 11:00:35;;;;;;;7.07;4.80;;;;;;;24.73;56.31;98237.97;3579546;40;20055;-66
2021/07/24 11:03:03;;;;;;;9.75;4.53;;;;;;;24.89;55.45;98236.56;3579323;40;20097;-66
2021/07/24 11:05:38;;;;;;;5.45;4.60;;;;;;;25.01;55.11;98247.69;3579569;40;20048;-66
2021/07/24 11:08:06;;;;;;;6.85;4.88;;;;;;;24.96;54.56;98245.09;3588396;40;20049;-66
2021/07/24 11:10:34;;;;;;;7.65;4.65;;;;;;;24.80;54.70;98238.38;3588620;40;20048;-66
2021/07/24 11:13:02;;;;;;;7.03;4.70;;;;;;;24.70;55.26;98242.09;3588682;40;20402;-66
2021/07/24 11:15:48;;;;;;;5.32;4.57;;;;;;;24.57;55.46;98248.25;3588582;40;20048;-67
2021/07/24 11:18:23;;;;;;;7.95;5.55;;;;;;;24.13;57.28;98263.81;3579150;40;20060;-65
2021/07/24 11:20:54;;;;;;;7.50;5.15;;;;;;;23.66;59.20;98248.56;3588587;40;20064;-64
2021/07/24 11:23:23;;;;;;;8.55;5.57;;;;;;;23.35;60.19;98262.47;3588556;40;20062;-66
2021/07/24 11:25:52;;;;;;;8.30;5.47;;;;;;;23.12;61.10;98277.53;3588451;40;20398;-65
2021/07/24 11:28:22;;;;;;;7.18;5.53;;;;;;;23.15;61.67;98268.88;3588080;40;20084;-65
2021/07/24 11:31:03;;;;;;;6.93;5.50;;;;;;;23.29;60.77;98278.97;3588169;40;20047;-65
2021/07/24 11:33:32;;;;;;;8.02;5.93;;;;;;;23.45;60.40;98272.31;3579196;40;20436;-65
2021/07/24 11:36:06;;;;;;;8.63;5.97;;;;;;;23.65;59.54;98274.75;3588355;40;20076;-66
2021/07/24 11:38:37;;;;;;;8.88;6.07;;;;;;;23.85;58.20;98280.97;3588087;40;20141;-65
2021/07/24 11:41:08;;;;;;;6.53;5.50;;;;;;;23.95;57.50;98273.50;3588847;40;20389;-66
2021/07/24 11:43:40;;;;;;;6.25;5.18;;;;;;;24.22;56.75;98269.34;3579837;40;20322;-67